Point Hope, AK (99766)

2:24 AM AKDT on March 23, 2017 (GMT -0800)
Point Hope | | Change Station

Elev 13 ft 68.35 °N, 166.80 °W | Updated 28 minutes ago

Partly Cloudy
Partly Cloudy
-3 °F
Feels Like -18 °F
N
8
Wind Variable Wind from South

Today
High -- | Low -- °F
--% Chance of Precip.
Yesterday
High -- | Low -- °F
Precip. -- in
Pressure 30.12 in
Visibility 4.0 miles
Clouds Scattered Clouds 8000 ft
Windchill -18 °F
Dew Point -6 °F
Humidity 87%
Rainfall 0.00 in
Snow Depth Not available.
8:51 AM 9:37 PM
Waning Crescent, 24% visible
METAR PAPO 230956Z AUTO 17007KT 4SM -SN BR SCT080 M19/M21 A3012 RMK AO2 SNB0859E19B41 SLP198 P0000 T11941211 FZRANO
Pressure 30.12 in
Visibility 4.0 miles
Clouds Scattered Clouds 8000 ft
Windchill -18 °F
Dew Point -6 °F
Humidity 87%
Rainfall 0.00 in
Snow Depth Not available.
8:51 AM 9:37 PM
Waning Crescent, 24% visible
METAR PAPO 230956Z AUTO 17007KT 4SM -SN BR SCT080 M19/M21 A3012 RMK AO2 SNB0859E19B41 SLP198 P0000 T11941211 FZRANO

Get Severe Weather Alerts

Thanks for signing up!

Be on the lookout for a verification email in your inbox.

You'll start receiving the daily forecast at 8 AM.

×

10-Day Weather Forecast

Almanac

Astronomy

Mar. 23, 2017 Rise Set
Actual Time
Civil Twilight
Nautical Twilight
Astronomical Twilight
Moon
Length of Visible Light
Length of Day
Tomorrow will be .
, % of the Moon is Illuminated

Today's Extremes

State Highs State Lows

Community

WunderPhotos

Upload Photos

1,962,540 photos uploaded!

WunderBlog® & News

Nearby

Air Quality

  Air Quality AQ Index Pollutant
Not available.

Snow Depth

Station Depth Elevation

Earthquake Activity

City Distance Mag. Time & Date
Minimum magnitude displayed is 2.5.

Earthquake Activity

City Distance Mag. Time & Date
Minimum magnitude displayed is 2.5.

Coastal Water Temperatures

Place Temperature

Stations

Nearby Weather Stations

Station Location Temp. Windchill Dew Point Humidity Wind Precip. Elev Updated Type
                   

Watches & Warnings

There are currently no watches in effect.